createdAt,value
2022-08-01T00:01:35.035Z,86.88
2022-08-01T00:04:04.272Z,87.49
2022-08-01T00:06:33.481Z,87.78
2022-08-01T00:09:02.685Z,87.74
2022-08-01T00:11:31.864Z,87.94
2022-08-01T00:14:01.521Z,87.69
2022-08-01T00:16:30.417Z,87.74
2022-08-01T00:18:59.713Z,87.83
2022-08-01T00:21:28.322Z,87.79
2022-08-01T00:23:56.982Z,87.64
2022-08-01T00:26:25.771Z,87.62
2022-08-01T00:28:54.384Z,87.66
2022-08-01T00:31:23.221Z,87.71
2022-08-01T00:33:51.870Z,87.56
2022-08-01T00:36:21.142Z,87.49
2022-08-01T00:38:50.166Z,87.66
2022-08-01T00:41:19.635Z,87.75
2022-08-01T00:43:48.506Z,87.74
2022-08-01T00:46:19.780Z,87.95
2022-08-01T00:48:48.490Z,87.97
2022-08-01T00:51:18.222Z,87.85
2022-08-01T00:53:51.661Z,87.72
2022-08-01T00:56:22.653Z,87.82
2022-08-01T00:58:51.896Z,87.95
2022-08-01T01:01:22.920Z,87.83
2022-08-01T01:03:59.227Z,87.84
2022-08-01T01:07:02.134Z,87.99
2022-08-01T01:09:37.044Z,87.37
2022-08-01T01:12:27.375Z,84.64
2022-08-01T01:15:18.609Z,81.52
2022-08-01T01:18:04.862Z,79.00
2022-08-01T01:20:46.950Z,78.38
2022-08-01T01:23:46.350Z,78.24
2022-08-01T01:26:30.623Z,76.45
2022-08-01T01:29:17.513Z,75.91
2022-08-01T01:31:59.416Z,75.00
2022-08-01T01:34:33.861Z,74.16
2022-08-01T01:37:04.980Z,73.45
2022-08-01T01:39:36.478Z,72.75
2022-08-01T01:42:08.758Z,72.68
2022-08-01T01:44:39.458Z,72.99
2022-08-01T01:47:08.567Z,73.36
2022-08-01T01:49:38.050Z,73.27
2022-08-01T01:52:08.804Z,72.62
2022-08-01T01:54:44.465Z,73.16
2022-08-01T01:57:14.786Z,72.48
2022-08-01T01:59:45.552Z,72.38
2022-08-01T02:02:16.242Z,71.84
2022-08-01T02:04:47.075Z,72.97
2022-08-01T02:07:26.167Z,72.44
2022-08-01T02:09:56.779Z,72.71
2022-08-01T02:12:26.183Z,72.73
2022-08-01T02:14:58.359Z,72.79
2022-08-01T02:17:28.925Z,72.54
2022-08-01T02:19:57.797Z,72.53
2022-08-01T02:22:59.938Z,72.56
2022-08-01T02:25:35.783Z,72.95
2022-08-01T02:28:10.858Z,71.99
2022-08-01T02:30:44.611Z,72.08
2022-08-01T02:33:22.778Z,73.00
2022-08-01T02:36:30.666Z,72.59
2022-08-01T02:38:48.355Z,73.49
2022-08-01T02:41:22.709Z,73.30
2022-08-01T02:43:58.634Z,72.76
2022-08-01T02:46:40.722Z,73.27
2022-08-01T02:49:13.057Z,72.18
2022-08-01T02:51:44.546Z,73.03
2022-08-01T02:54:13.917Z,72.10
2022-08-01T02:56:44.556Z,71.45
2022-08-01T02:59:22.332Z,71.99
2022-08-01T03:01:55.200Z,72.22
2022-08-01T03:04:26.261Z,72.41
2022-08-01T03:06:59.035Z,72.23
2022-08-01T03:09:33.933Z,72.79
2022-08-01T03:12:06.590Z,71.09
2022-08-01T03:14:39.876Z,71.55
2022-08-01T03:17:11.464Z,72.25
2022-08-01T03:19:43.214Z,71.65
2022-08-01T03:22:16.697Z,71.96
2022-08-01T03:24:50.728Z,72.40
2022-08-01T03:27:22.633Z,72.88
2022-08-01T03:29:53.071Z,73.20
2022-08-01T03:32:23.434Z,73.44
2022-08-01T03:34:52.543Z,73.26
2022-08-01T03:37:27.573Z,73.75
2022-08-01T03:40:08.283Z,74.30
2022-08-01T03:42:48.193Z,74.11
2022-08-01T03:45:29.292Z,74.93
2022-08-01T03:48:02.423Z,74.82
2022-08-01T03:50:35.746Z,74.69
2022-08-01T03:53:05.929Z,74.80
2022-08-01T03:55:40.137Z,74.18
2022-08-01T03:58:10.852Z,74.22
2022-08-01T04:00:41.114Z,72.74
2022-08-01T04:03:10.792Z,73.33
2022-08-01T04:05:42.198Z,72.93
2022-08-01T04:08:11.124Z,72.87
2022-08-01T04:10:39.946Z,73.19
2022-08-01T04:13:08.693Z,73.37
2022-08-01T04:15:37.265Z,73.80
2022-08-01T04:18:05.950Z,73.20
2022-08-01T04:20:34.694Z,73.44
2022-08-01T04:23:05.651Z,72.56
2022-08-01T04:25:36.940Z,72.49
2022-08-01T04:28:09.513Z,72.44
2022-08-01T04:30:40.576Z,71.98
2022-08-01T04:33:11.903Z,71.59
2022-08-01T04:36:03.627Z,72.30
2022-08-01T04:38:33.944Z,73.30
2022-08-01T04:41:08.924Z,72.50
2022-08-01T04:43:39.259Z,72.56
2022-08-01T04:46:11.963Z,73.34
2022-08-01T04:48:41.784Z,72.93
2022-08-01T04:51:16.964Z,73.70
2022-08-01T04:53:48.212Z,71.27
2022-08-01T04:56:17.979Z,71.81
2022-08-01T04:58:46.758Z,72.08
2022-08-01T05:01:16.028Z,72.21
2022-08-01T05:03:45.650Z,72.09
2022-08-01T05:06:14.473Z,72.51
2022-08-01T05:08:43.071Z,71.09
2022-08-01T05:11:13.178Z,71.00
2022-08-01T05:13:42.478Z,70.82
2022-08-01T05:16:16.275Z,70.67
2022-08-01T05:18:44.743Z,70.25
2022-08-01T05:21:18.879Z,69.78
2022-08-01T05:23:47.423Z,70.54
2022-08-01T05:26:16.043Z,70.20
2022-08-01T05:28:44.524Z,70.61
2022-08-01T05:31:13.293Z,70.92
2022-08-01T05:33:41.843Z,71.82
2022-08-01T05:36:10.466Z,72.17
2022-08-01T05:38:39.087Z,72.66
2022-08-01T05:41:07.765Z,73.32
2022-08-01T05:43:36.418Z,72.89
2022-08-01T05:46:05.156Z,72.90
2022-08-01T05:48:33.682Z,73.04
2022-08-01T05:51:02.257Z,73.06
2022-08-01T05:53:30.975Z,73.42
2022-08-01T05:55:59.799Z,73.47
2022-08-01T05:58:28.250Z,73.30
2022-08-01T06:00:57.134Z,73.44
2022-08-01T06:03:25.955Z,74.15
2022-08-01T06:05:55.471Z,74.33
2022-08-01T06:08:23.963Z,74.53
2022-08-01T06:10:52.742Z,74.24
2022-08-01T06:13:21.685Z,75.03
2022-08-01T06:15:50.922Z,74.21
2022-08-01T06:18:19.710Z,73.42
2022-08-01T06:20:48.697Z,73.17
2022-08-01T06:23:32.709Z,72.46
2022-08-01T06:26:02.006Z,73.47
2022-08-01T06:28:31.059Z,72.78
2022-08-01T06:31:00.793Z,73.33
2022-08-01T06:33:29.780Z,73.49
2022-08-01T06:35:59.186Z,73.79
2022-08-01T06:38:27.853Z,73.91
2022-08-01T06:40:56.435Z,73.64
2022-08-01T06:43:25.184Z,72.66
2022-08-01T06:45:53.834Z,71.94
2022-08-01T06:48:22.382Z,71.97
2022-08-01T06:50:50.943Z,72.10
2022-08-01T06:53:19.542Z,72.07
2022-08-01T06:55:48.166Z,71.33
2022-08-01T06:58:16.780Z,71.68
2022-08-01T07:00:45.297Z,71.18
2022-08-01T07:03:16.368Z,70.83
2022-08-01T07:05:45.092Z,70.90
2022-08-01T07:08:13.904Z,70.12
2022-08-01T07:10:42.624Z,70.29
2022-08-01T07:13:11.343Z,70.53
2022-08-01T07:15:40.084Z,69.09
2022-08-01T07:18:08.778Z,67.47
2022-08-01T07:20:50.398Z,68.11
2022-08-01T07:23:22.759Z,66.99
2022-08-01T07:26:03.255Z,67.55
2022-08-01T07:28:32.147Z,68.00
2022-08-01T07:31:00.754Z,68.14
2022-08-01T07:33:48.615Z,67.96
2022-08-01T07:36:18.597Z,68.36
2022-08-01T07:38:47.967Z,68.07
2022-08-01T07:41:16.976Z,67.08
2022-08-01T07:43:54.528Z,67.13
2022-08-01T07:46:25.895Z,68.02
2022-08-01T07:48:57.043Z,67.77
2022-08-01T07:51:25.972Z,66.76
2022-08-01T07:53:54.642Z,67.51
2022-08-01T07:56:25.604Z,67.03
2022-08-01T07:58:54.290Z,66.85
2022-08-01T08:01:22.917Z,66.09
2022-08-01T08:03:51.299Z,66.51
2022-08-01T08:06:19.960Z,66.77
2022-08-01T08:08:48.539Z,68.04
2022-08-01T08:11:17.369Z,66.70
2022-08-01T08:13:46.179Z,65.53
2022-08-01T08:16:17.179Z,66.23
2022-08-01T08:18:46.328Z,65.82
2022-08-01T08:21:15.393Z,64.50
2022-08-01T08:24:02.596Z,65.41
2022-08-01T08:26:31.584Z,66.96
2022-08-01T08:29:00.541Z,66.20
2022-08-01T08:31:51.718Z,66.78
2022-08-01T08:34:18.012Z,68.05
2022-08-01T08:36:47.933Z,68.24
2022-08-01T08:39:19.671Z,69.34
2022-08-01T08:41:50.034Z,70.79
2022-08-01T08:44:21.988Z,72.01
2022-08-01T08:46:53.233Z,73.07
2022-08-01T08:49:26.232Z,73.34
2022-08-01T08:51:59.504Z,73.46
2022-08-01T08:54:31.207Z,73.38
2022-08-01T08:57:02.086Z,72.83
2022-08-01T08:59:31.108Z,72.09
2022-08-01T09:02:00.632Z,72.29
2022-08-01T09:04:29.294Z,71.97
2022-08-01T09:06:58.004Z,71.59
2022-08-01T09:09:26.836Z,71.15
2022-08-01T09:11:58.090Z,71.66
2022-08-01T09:14:31.756Z,72.00
2022-08-01T09:17:12.674Z,72.70
2022-08-01T09:19:47.116Z,71.20
2022-08-01T09:22:22.975Z,70.85
2022-08-01T09:25:02.271Z,71.14
2022-08-01T09:27:31.431Z,70.52
2022-08-01T09:30:19.645Z,70.18
2022-08-01T09:32:59.572Z,70.17
2022-08-01T09:35:43.929Z,70.64
2022-08-01T09:38:21.337Z,70.21
2022-08-01T09:40:58.368Z,69.69
2022-08-01T09:43:29.808Z,70.19
2022-08-01T09:46:01.614Z,69.24
2022-08-01T09:48:30.360Z,69.09
2022-08-01T09:51:07.047Z,67.38
2022-08-01T09:53:51.853Z,67.10
2022-08-01T09:56:24.437Z,67.29
2022-08-01T09:59:02.419Z,66.91
2022-08-01T10:01:47.601Z,66.05
2022-08-01T10:04:21.996Z,65.47
2022-08-01T10:06:55.837Z,64.99
2022-08-01T10:09:39.914Z,65.84
2022-08-01T10:12:15.550Z,65.47
2022-08-01T10:14:50.235Z,64.23
2022-08-01T10:17:22.758Z,64.78
2022-08-01T10:19:58.143Z,63.78
2022-08-01T10:22:28.718Z,63.95
2022-08-01T10:25:00.924Z,62.72
2022-08-01T10:27:38.088Z,62.62
2022-08-01T10:30:20.166Z,61.36
2022-08-01T10:32:56.645Z,61.47
2022-08-01T10:35:46.575Z,62.37
2022-08-01T10:38:14.763Z,60.40
2022-08-01T10:40:47.061Z,58.53
2022-08-01T10:43:21.645Z,58.22
2022-08-01T10:45:52.806Z,56.58
2022-08-01T10:48:42.143Z,57.39
2022-08-01T10:51:18.059Z,58.11
2022-08-01T10:53:56.229Z,59.08
2022-08-01T10:56:26.424Z,58.78
2022-08-01T10:59:06.395Z,57.19
2022-08-01T11:01:44.967Z,57.07
2022-08-01T11:04:17.351Z,56.86
2022-08-01T11:07:10.112Z,56.29
2022-08-01T11:09:51.073Z,56.43
2022-08-01T11:12:24.128Z,57.00
2022-08-01T11:15:03.546Z,57.19
2022-08-01T11:17:37.654Z,57.87
2022-08-01T11:20:13.092Z,56.02
2022-08-01T11:23:02.451Z,55.97
2022-08-01T11:26:05.011Z,56.10
2022-08-01T11:28:32.916Z,55.39
2022-08-01T11:31:10.945Z,55.20
2022-08-01T11:33:46.062Z,56.32
2022-08-01T11:36:15.830Z,56.73
2022-08-01T11:38:50.167Z,57.01
2022-08-01T11:41:38.413Z,58.00
2022-08-01T11:44:09.765Z,57.62
2022-08-01T11:47:08.611Z,58.22
2022-08-01T11:49:43.473Z,58.59
2022-08-01T11:52:27.685Z,57.64
2022-08-01T11:55:04.077Z,58.24
2022-08-01T11:57:39.214Z,58.84
2022-08-01T12:00:20.443Z,58.22
2022-08-01T12:03:04.738Z,58.64
2022-08-01T12:05:37.026Z,58.86
2022-08-01T12:08:12.359Z,58.00
2022-08-01T12:10:49.637Z,57.98
2022-08-01T12:13:19.799Z,57.92
2022-08-01T12:15:52.345Z,58.53
2022-08-01T12:18:23.686Z,58.61
2022-08-01T12:20:56.990Z,58.86
2022-08-01T12:23:26.010Z,59.91
2022-08-01T12:25:55.318Z,60.14
2022-08-01T12:28:24.719Z,61.46
2022-08-01T12:30:53.912Z,61.91
2022-08-01T12:33:23.419Z,62.05
2022-08-01T12:35:54.402Z,62.29
2022-08-01T12:38:26.589Z,62.86
2022-08-01T12:40:55.174Z,62.98
2022-08-01T12:43:29.551Z,62.15
2022-08-01T12:46:02.054Z,62.35
2022-08-01T12:48:33.631Z,62.74
2022-08-01T12:51:04.979Z,62.32
2022-08-01T12:53:40.698Z,63.14
2022-08-01T12:56:14.726Z,63.75
2022-08-01T12:58:44.838Z,63.32
2022-08-01T13:01:14.922Z,63.31
2022-08-01T13:04:02.643Z,64.06
2022-08-01T13:06:32.385Z,63.67
2022-08-01T13:09:08.596Z,63.62
2022-08-01T13:11:37.861Z,63.69
2022-08-01T13:14:30.127Z,64.35
2022-08-01T13:16:58.982Z,63.43
2022-08-01T13:19:47.024Z,63.80
2022-08-01T13:22:15.786Z,64.03
2022-08-01T13:24:44.632Z,63.80
2022-08-01T13:27:25.450Z,63.77
2022-08-01T13:29:55.179Z,63.57
2022-08-01T13:32:29.770Z,63.32
2022-08-01T13:35:09.359Z,63.91
2022-08-01T13:37:39.535Z,63.56
2022-08-01T13:40:09.758Z,63.69
2022-08-01T13:42:41.585Z,63.21
2022-08-01T13:45:14.771Z,63.24
2022-08-01T13:48:03.559Z,62.96
2022-08-01T13:50:33.648Z,63.12
2022-08-01T13:53:02.563Z,62.98
2022-08-01T13:55:35.018Z,63.34
2022-08-01T13:58:04.865Z,63.25
2022-08-01T14:00:34.077Z,63.48
2022-08-01T14:03:02.662Z,63.22
2022-08-01T14:05:32.173Z,63.54
2022-08-01T14:08:01.181Z,64.03
2022-08-01T14:10:30.223Z,64.31
2022-08-01T14:13:00.309Z,64.60
2022-08-01T14:15:37.624Z,64.66
2022-08-01T14:18:10.670Z,64.68
2022-08-01T14:20:41.216Z,65.74
2022-08-01T14:23:11.321Z,65.45
2022-08-01T14:26:03.531Z,65.78
2022-08-01T14:28:31.672Z,66.37
2022-08-01T14:31:01.112Z,66.71
2022-08-01T14:33:30.592Z,67.01
2022-08-01T14:36:05.556Z,66.86
2022-08-01T14:38:48.558Z,67.33
2022-08-01T14:41:17.701Z,67.07
2022-08-01T14:43:46.452Z,67.69
2022-08-01T14:46:15.264Z,68.01
2022-08-01T14:48:44.265Z,67.92
2022-08-01T14:51:12.878Z,68.65
2022-08-01T14:53:46.906Z,68.54
2022-08-01T14:56:19.699Z,69.15
2022-08-01T14:58:48.733Z,69.15
2022-08-01T15:01:18.075Z,69.69
2022-08-01T15:03:48.124Z,69.63
2022-08-01T15:06:16.846Z,69.34
2022-08-01T15:08:46.205Z,69.35
2022-08-01T15:11:14.820Z,69.93
2022-08-01T15:13:43.723Z,69.69
2022-08-01T15:16:12.434Z,69.75
2022-08-01T15:18:41.346Z,69.85
2022-08-01T15:21:14.422Z,70.44
2022-08-01T15:23:49.625Z,70.41
2022-08-01T15:26:18.420Z,70.30
2022-08-01T15:28:47.194Z,70.60
2022-08-01T15:31:15.941Z,71.18
2022-08-01T15:33:44.280Z,70.47
2022-08-01T15:36:15.423Z,70.65
2022-08-01T15:38:44.145Z,70.97
2022-08-01T15:41:12.975Z,70.88
2022-08-01T15:43:43.939Z,70.85
2022-08-01T15:46:16.827Z,70.89
2022-08-01T15:48:45.633Z,70.80
2022-08-01T15:51:14.319Z,71.02
2022-08-01T15:53:44.348Z,71.41
2022-08-01T15:56:12.996Z,71.61
2022-08-01T15:58:41.978Z,71.79
2022-08-01T16:01:10.537Z,72.24
2022-08-01T16:03:38.929Z,72.69
2022-08-01T16:06:09.209Z,72.96
2022-08-01T16:08:37.693Z,72.54
2022-08-01T16:11:06.474Z,72.67
2022-08-01T16:13:34.852Z,72.32
2022-08-01T16:16:05.611Z,72.64
2022-08-01T16:18:34.411Z,73.15
2022-08-01T16:21:03.143Z,73.56
2022-08-01T16:23:32.224Z,73.47
2022-08-01T16:26:01.111Z,73.80
2022-08-01T16:28:31.985Z,73.95
2022-08-01T16:31:11.251Z,74.06
2022-08-01T16:33:53.935Z,74.12
2022-08-01T16:36:24.788Z,74.22
2022-08-01T16:38:54.105Z,74.00
2022-08-01T16:41:22.741Z,74.47
2022-08-01T16:43:53.887Z,74.35
2022-08-01T16:46:25.694Z,74.49
2022-08-01T16:48:55.120Z,74.81
2022-08-01T16:51:24.091Z,75.21
2022-08-01T16:53:52.771Z,75.03
2022-08-01T16:56:22.262Z,75.35
2022-08-01T16:58:51.352Z,75.40
2022-08-01T17:01:59.906Z,75.46
2022-08-01T17:04:08.480Z,75.59
2022-08-01T17:06:37.232Z,75.88
2022-08-01T17:09:06.060Z,76.17
2022-08-01T17:11:34.734Z,76.33
2022-08-01T17:14:03.781Z,76.37
2022-08-01T17:16:32.701Z,76.40
2022-08-01T17:19:01.414Z,76.40
2022-08-01T17:21:30.199Z,76.81
2022-08-01T17:23:59.187Z,76.76
2022-08-01T17:26:27.972Z,76.97
2022-08-01T17:28:56.748Z,77.13
2022-08-01T17:31:25.409Z,77.20
2022-08-01T17:33:55.202Z,77.16
2022-08-01T17:36:24.366Z,77.49
2022-08-01T17:38:53.098Z,77.30
2022-08-01T17:41:21.795Z,77.38
2022-08-01T17:43:50.600Z,77.63
2022-08-01T17:46:19.354Z,77.63
2022-08-01T17:48:48.328Z,77.60
2022-08-01T17:51:22.501Z,77.79
2022-08-01T17:53:55.584Z,77.78
2022-08-01T17:56:28.037Z,77.94
2022-08-01T17:58:57.314Z,77.90
2022-08-01T18:01:27.136Z,77.91
2022-08-01T18:03:59.404Z,77.93
2022-08-01T18:06:31.131Z,77.77
2022-08-01T18:09:09.540Z,78.50
2022-08-01T18:11:42.643Z,78.30
2022-08-01T18:14:13.574Z,78.09
2022-08-01T18:16:43.483Z,78.24
2022-08-01T18:19:14.034Z,78.07
2022-08-01T18:21:44.566Z,78.35
2022-08-01T18:24:13.448Z,78.67
2022-08-01T18:26:42.716Z,78.30
2022-08-01T18:29:11.634Z,78.42
2022-08-01T18:31:42.267Z,78.29
2022-08-01T18:34:11.048Z,78.78
2022-08-01T18:36:40.915Z,78.92
2022-08-01T18:39:10.826Z,79.25
2022-08-01T18:41:41.374Z,79.36
2022-08-01T18:44:09.916Z,79.27
2022-08-01T18:46:40.678Z,79.06
2022-08-01T18:49:11.502Z,79.55
2022-08-01T18:51:44.523Z,79.71
2022-08-01T18:54:15.853Z,79.87
2022-08-01T18:56:45.768Z,79.53
2022-08-01T18:59:14.824Z,79.31
2022-08-01T19:01:43.651Z,79.47
2022-08-01T19:04:12.409Z,79.82
2022-08-01T19:06:41.497Z,80.01
2022-08-01T19:09:10.276Z,80.40
2022-08-01T19:11:38.815Z,80.32
2022-08-01T19:14:07.543Z,80.43
2022-08-01T19:16:36.155Z,80.12
2022-08-01T19:19:07.202Z,79.73
2022-08-01T19:21:36.375Z,79.49
2022-08-01T19:24:23.054Z,79.94
2022-08-01T19:26:57.235Z,79.87
2022-08-01T19:29:37.838Z,79.93
2022-08-01T19:32:08.884Z,79.45
2022-08-01T19:35:05.024Z,79.54
2022-08-01T19:37:34.831Z,79.99
2022-08-01T19:40:03.481Z,79.80
2022-08-01T19:42:32.116Z,79.69
2022-08-01T19:45:02.880Z,79.70
2022-08-01T19:47:56.132Z,80.20
2022-08-01T19:50:21.795Z,79.59
2022-08-01T19:52:56.192Z,79.87
2022-08-01T19:55:25.835Z,80.03
2022-08-01T19:58:17.219Z,80.19
2022-08-01T20:00:43.642Z,80.24
2022-08-01T20:03:15.974Z,80.22
2022-08-01T20:05:44.993Z,80.25
2022-08-01T20:08:14.498Z,79.73
2022-08-01T20:10:43.344Z,80.18
2022-08-01T20:13:13.052Z,80.19
2022-08-01T20:15:47.247Z,80.63
2022-08-01T20:18:15.760Z,80.76
2022-08-01T20:20:47.223Z,80.78
2022-08-01T20:23:17.897Z,80.53
2022-08-01T20:25:50.432Z,80.06
2022-08-01T20:28:25.464Z,80.36
2022-08-01T20:31:05.046Z,81.03
2022-08-01T20:33:36.563Z,80.88
2022-08-01T20:36:11.959Z,81.29
2022-08-01T20:38:58.453Z,80.68
2022-08-01T20:41:29.168Z,80.78
2022-08-01T20:43:59.503Z,81.30
2022-08-01T20:46:29.932Z,80.96
2022-08-01T20:48:59.864Z,80.38
2022-08-01T20:51:40.555Z,81.55
2022-08-01T20:54:11.697Z,81.41
2022-08-01T20:56:52.222Z,81.24
2022-08-01T20:59:56.190Z,81.44
2022-08-01T21:02:42.507Z,81.53
2022-08-01T21:05:13.276Z,81.29
2022-08-01T21:07:54.427Z,80.69
2022-08-01T21:10:25.407Z,80.88
2022-08-01T21:13:06.872Z,81.07
2022-08-01T21:15:57.440Z,81.23
2022-08-01T21:18:39.932Z,81.29
2022-08-01T21:21:19.845Z,81.73
2022-08-01T21:24:05.633Z,80.99
2022-08-01T21:26:36.852Z,81.04
2022-08-01T21:29:08.330Z,81.29
2022-08-01T21:31:40.721Z,81.61
2022-08-01T21:34:12.943Z,81.92
2022-08-01T21:36:45.160Z,82.59
2022-08-01T21:39:14.694Z,82.99
2022-08-01T21:41:55.982Z,82.78
2022-08-01T21:44:34.848Z,82.43
2022-08-01T21:47:04.414Z,83.07
2022-08-01T21:49:33.160Z,82.72
2022-08-01T21:52:09.239Z,82.77
2022-08-01T21:55:10.804Z,81.83
2022-08-01T21:57:51.512Z,82.74
2022-08-01T22:00:26.280Z,82.87
2022-08-01T22:03:14.182Z,82.71
2022-08-01T22:05:50.842Z,82.71
2022-08-01T22:08:33.325Z,82.71
2022-08-01T22:11:07.130Z,83.80
2022-08-01T22:13:38.675Z,83.23
2022-08-01T22:16:08.944Z,82.99
2022-08-01T22:18:38.634Z,84.08
2022-08-01T22:21:09.002Z,84.31
2022-08-01T22:23:38.050Z,84.00
2022-08-01T22:26:11.847Z,84.36
2022-08-01T22:28:42.752Z,84.11
2022-08-01T22:31:11.215Z,84.35
2022-08-01T22:33:40.545Z,83.97
2022-08-01T22:36:09.140Z,84.39
2022-08-01T22:38:37.913Z,84.46
2022-08-01T22:41:14.988Z,84.86
2022-08-01T22:43:53.765Z,84.35
2022-08-01T22:46:54.775Z,83.96
2022-08-01T22:49:28.187Z,84.52
2022-08-01T22:52:13.159Z,84.02
2022-08-01T22:54:45.299Z,84.66
2022-08-01T22:57:24.494Z,84.62
2022-08-01T23:02:33.876Z,85.10
2022-08-01T23:05:13.069Z,84.80
2022-08-01T23:07:47.495Z,85.53
2022-08-01T23:10:17.140Z,85.01
2022-08-01T23:12:46.753Z,85.06
2022-08-01T23:15:15.421Z,85.11
2022-08-01T23:17:44.785Z,85.29
2022-08-01T23:20:13.573Z,85.61
2022-08-01T23:22:42.808Z,85.64
2022-08-01T23:25:16.757Z,85.57
2022-08-01T23:27:54.177Z,86.02
2022-08-01T23:30:35.881Z,85.00
2022-08-01T23:33:04.770Z,85.74
2022-08-01T23:35:35.478Z,85.31
2022-08-01T23:38:08.233Z,85.85
2022-08-01T23:40:37.858Z,85.18
2022-08-01T23:43:14.627Z,84.60
2022-08-01T23:46:04.022Z,84.42
2022-08-01T23:48:35.393Z,84.07
2022-08-01T23:51:05.898Z,83.64
2022-08-01T23:53:38.876Z,82.67
2022-08-01T23:56:07.613Z,82.47
2022-08-01T23:58:36.353Z,82.69
